sensor_id;sensor_type;location;lat;lon;timestamp;P1;durP1;ratioP1;P2;durP2;ratioP2
44694;SDS011;32845;59.422;17.930;2023-08-21T00:01:58;40.92;;;15.57;;
44694;SDS011;32845;59.422;17.930;2023-08-21T00:06:29;43.85;;;16.15;;
44694;SDS011;32845;59.422;17.930;2023-08-21T00:10:59;51.55;;;15.77;;
44694;SDS011;32845;59.422;17.930;2023-08-21T00:15:30;44.22;;;15.27;;
44694;SDS011;32845;59.422;17.930;2023-08-21T00:20:01;44.50;;;15.80;;
44694;SDS011;32845;59.422;17.930;2023-08-21T00:24:32;36.75;;;14.68;;
44694;SDS011;32845;59.422;17.930;2023-08-21T00:29:03;40.55;;;14.02;;
44694;SDS011;32845;59.422;17.930;2023-08-21T00:33:33;39.45;;;14.73;;
44694;SDS011;32845;59.422;17.930;2023-08-21T00:38:04;38.58;;;15.98;;
44694;SDS011;32845;59.422;17.930;2023-08-21T00:42:35;33.83;;;13.05;;
44694;SDS011;32845;59.422;17.930;2023-08-21T00:47:05;30.27;;;13.48;;
44694;SDS011;32845;59.422;17.930;2023-08-21T00:51:36;28.17;;;12.60;;
44694;SDS011;32845;59.422;17.930;2023-08-21T00:56:07;28.17;;;12.32;;
44694;SDS011;32845;59.422;17.930;2023-08-21T01:00:39;33.67;;;11.80;;
44694;SDS011;32845;59.422;17.930;2023-08-21T01:05:10;19.92;;;10.73;;
44694;SDS011;32845;59.422;17.930;2023-08-21T01:14:30;22.58;;;9.70;;
44694;SDS011;32845;59.422;17.930;2023-08-21T01:19:09;21.23;;;10.00;;
44694;SDS011;32845;59.422;17.930;2023-08-21T01:23:49;24.08;;;10.48;;
44694;SDS011;32845;59.422;17.930;2023-08-21T01:28:19;22.70;;;10.35;;
44694;SDS011;32845;59.422;17.930;2023-08-21T01:37:20;13.25;;;8.43;;
44694;SDS011;32845;59.422;17.930;2023-08-21T01:41:52;20.80;;;11.73;;
44694;SDS011;32845;59.422;17.930;2023-08-21T01:46:22;19.45;;;10.43;;
44694;SDS011;32845;59.422;17.930;2023-08-21T01:50:53;16.60;;;10.02;;
44694;SDS011;32845;59.422;17.930;2023-08-21T01:55:24;19.73;;;9.98;;
44694;SDS011;32845;59.422;17.930;2023-08-21T01:59:54;19.40;;;9.30;;
44694;SDS011;32845;59.422;17.930;2023-08-21T02:04:25;19.70;;;9.85;;
44694;SDS011;32845;59.422;17.930;2023-08-21T02:08:55;17.48;;;10.13;;
44694;SDS011;32845;59.422;17.930;2023-08-21T02:13:26;19.52;;;9.98;;
44694;SDS011;32845;59.422;17.930;2023-08-21T02:17:57;21.20;;;9.85;;
44694;SDS011;32845;59.422;17.930;2023-08-21T02:22:27;16.25;;;9.15;;
44694;SDS011;32845;59.422;17.930;2023-08-21T02:26:58;19.27;;;9.70;;
44694;SDS011;32845;59.422;17.930;2023-08-21T02:31:28;17.13;;;8.45;;
44694;SDS011;32845;59.422;17.930;2023-08-21T02:35:59;14.82;;;7.85;;
44694;SDS011;32845;59.422;17.930;2023-08-21T02:40:30;13.43;;;7.50;;
44694;SDS011;32845;59.422;17.930;2023-08-21T02:45:01;15.02;;;7.78;;
44694;SDS011;32845;59.422;17.930;2023-08-21T02:49:38;22.33;;;7.57;;
44694;SDS011;32845;59.422;17.930;2023-08-21T02:54:08;15.55;;;8.35;;
44694;SDS011;32845;59.422;17.930;2023-08-21T02:58:39;15.95;;;7.68;;
44694;SDS011;32845;59.422;17.930;2023-08-21T03:03:09;14.50;;;7.53;;
44694;SDS011;32845;59.422;17.930;2023-08-21T03:07:41;15.40;;;6.55;;
44694;SDS011;32845;59.422;17.930;2023-08-21T03:12:11;14.48;;;6.75;;
44694;SDS011;32845;59.422;17.930;2023-08-21T03:16:42;13.23;;;6.07;;
44694;SDS011;32845;59.422;17.930;2023-08-21T03:21:13;11.80;;;6.07;;
44694;SDS011;32845;59.422;17.930;2023-08-21T03:25:43;14.52;;;6.80;;
44694;SDS011;32845;59.422;17.930;2023-08-21T03:30:14;9.95;;;5.70;;
44694;SDS011;32845;59.422;17.930;2023-08-21T03:34:45;10.18;;;6.30;;
44694;SDS011;32845;59.422;17.930;2023-08-21T03:39:16;10.10;;;5.38;;
44694;SDS011;32845;59.422;17.930;2023-08-21T03:43:46;10.80;;;6.00;;
44694;SDS011;32845;59.422;17.930;2023-08-21T03:48:17;10.90;;;5.45;;
44694;SDS011;32845;59.422;17.930;2023-08-21T03:52:48;9.13;;;5.85;;
44694;SDS011;32845;59.422;17.930;2023-08-21T03:57:18;11.85;;;5.05;;
44694;SDS011;32845;59.422;17.930;2023-08-21T04:01:49;11.95;;;5.43;;
44694;SDS011;32845;59.422;17.930;2023-08-21T04:06:20;9.10;;;4.47;;
44694;SDS011;32845;59.422;17.930;2023-08-21T04:10:50;11.82;;;4.65;;
44694;SDS011;32845;59.422;17.930;2023-08-21T04:15:24;7.50;;;4.30;;
44694;SDS011;32845;59.422;17.930;2023-08-21T04:19:55;7.55;;;5.03;;
44694;SDS011;32845;59.422;17.930;2023-08-21T04:24:26;7.93;;;4.88;;
44694;SDS011;32845;59.422;17.930;2023-08-21T04:28:56;11.63;;;5.30;;
44694;SDS011;32845;59.422;17.930;2023-08-21T04:33:27;7.10;;;4.85;;
44694;SDS011;32845;59.422;17.930;2023-08-21T04:37:58;11.52;;;5.53;;
44694;SDS011;32845;59.422;17.930;2023-08-21T04:42:29;11.00;;;5.15;;
44694;SDS011;32845;59.422;17.930;2023-08-21T04:47:14;9.45;;;5.10;;
44694;SDS011;32845;59.422;17.930;2023-08-21T04:51:52;12.60;;;5.90;;
44694;SDS011;32845;59.422;17.930;2023-08-21T04:56:23;11.10;;;5.20;;
44694;SDS011;32845;59.422;17.930;2023-08-21T05:00:53;10.60;;;5.18;;
44694;SDS011;32845;59.422;17.930;2023-08-21T05:05:24;13.85;;;4.65;;
44694;SDS011;32845;59.422;17.930;2023-08-21T05:09:55;13.40;;;5.18;;
44694;SDS011;32845;59.422;17.930;2023-08-21T05:14:29;7.80;;;4.55;;
44694;SDS011;32845;59.422;17.930;2023-08-21T05:19:00;23.95;;;5.18;;
44694;SDS011;32845;59.422;17.930;2023-08-21T05:23:30;6.45;;;3.97;;
44694;SDS011;32845;59.422;17.930;2023-08-21T05:28:01;9.65;;;4.80;;
44694;SDS011;32845;59.422;17.930;2023-08-21T05:32:32;11.50;;;4.63;;
44694;SDS011;32845;59.422;17.930;2023-08-21T05:37:03;10.30;;;5.07;;
44694;SDS011;32845;59.422;17.930;2023-08-21T05:41:33;8.13;;;4.60;;
44694;SDS011;32845;59.422;17.930;2023-08-21T05:46:05;8.48;;;4.32;;
44694;SDS011;32845;59.422;17.930;2023-08-21T05:50:36;11.82;;;4.60;;
44694;SDS011;32845;59.422;17.930;2023-08-21T05:55:08;8.35;;;4.35;;
44694;SDS011;32845;59.422;17.930;2023-08-21T05:59:43;9.45;;;4.15;;
44694;SDS011;32845;59.422;17.930;2023-08-21T06:04:15;11.40;;;4.03;;
44694;SDS011;32845;59.422;17.930;2023-08-21T06:08:45;8.85;;;3.85;;
44694;SDS011;32845;59.422;17.930;2023-08-21T06:13:16;9.13;;;3.15;;
44694;SDS011;32845;59.422;17.930;2023-08-21T06:17:46;8.00;;;3.55;;
44694;SDS011;32845;59.422;17.930;2023-08-21T06:22:17;7.57;;;3.13;;
44694;SDS011;32845;59.422;17.930;2023-08-21T06:26:47;12.30;;;3.47;;
44694;SDS011;32845;59.422;17.930;2023-08-21T06:31:18;8.63;;;3.08;;
44694;SDS011;32845;59.422;17.930;2023-08-21T06:35:48;7.10;;;2.95;;
44694;SDS011;32845;59.422;17.930;2023-08-21T06:40:19;9.15;;;3.15;;
44694;SDS011;32845;59.422;17.930;2023-08-21T06:44:50;7.32;;;2.97;;
44694;SDS011;32845;59.422;17.930;2023-08-21T06:49:20;5.97;;;2.83;;
44694;SDS011;32845;59.422;17.930;2023-08-21T06:53:51;9.18;;;3.30;;
44694;SDS011;32845;59.422;17.930;2023-08-21T06:58:21;11.63;;;3.00;;
44694;SDS011;32845;59.422;17.930;2023-08-21T07:02:52;13.85;;;3.47;;
44694;SDS011;32845;59.422;17.930;2023-08-21T07:07:23;6.75;;;3.13;;
44694;SDS011;32845;59.422;17.930;2023-08-21T07:11:54;11.30;;;3.10;;
44694;SDS011;32845;59.422;17.930;2023-08-21T07:16:26;8.77;;;2.70;;
44694;SDS011;32845;59.422;17.930;2023-08-21T07:20:57;14.88;;;3.40;;
44694;SDS011;32845;59.422;17.930;2023-08-21T07:25:27;11.73;;;3.47;;
44694;SDS011;32845;59.422;17.930;2023-08-21T07:29:58;8.50;;;3.05;;
44694;SDS011;32845;59.422;17.930;2023-08-21T07:34:29;12.65;;;2.63;;
44694;SDS011;32845;59.422;17.930;2023-08-21T07:38:59;8.57;;;2.83;;
44694;SDS011;32845;59.422;17.930;2023-08-21T07:43:30;6.78;;;2.45;;
44694;SDS011;32845;59.422;17.930;2023-08-21T07:48:01;13.70;;;2.85;;
44694;SDS011;32845;59.422;17.930;2023-08-21T07:52:35;13.07;;;3.25;;
44694;SDS011;32845;59.422;17.930;2023-08-21T07:57:06;6.20;;;2.60;;
44694;SDS011;32845;59.422;17.930;2023-08-21T08:01:37;9.07;;;2.88;;
44694;SDS011;32845;59.422;17.930;2023-08-21T08:06:07;10.65;;;2.80;;
44694;SDS011;32845;59.422;17.930;2023-08-21T08:10:38;5.35;;;2.33;;
44694;SDS011;32845;59.422;17.930;2023-08-21T08:15:09;6.75;;;2.28;;
44694;SDS011;32845;59.422;17.930;2023-08-21T08:19:40;6.57;;;2.67;;
44694;SDS011;32845;59.422;17.930;2023-08-21T08:24:10;8.02;;;3.30;;
44694;SDS011;32845;59.422;17.930;2023-08-21T08:28:42;7.13;;;2.70;;
44694;SDS011;32845;59.422;17.930;2023-08-21T08:33:12;23.15;;;3.40;;
44694;SDS011;32845;59.422;17.930;2023-08-21T08:37:43;5.65;;;2.40;;
44694;SDS011;32845;59.422;17.930;2023-08-21T08:42:14;7.95;;;2.63;;
44694;SDS011;32845;59.422;17.930;2023-08-21T08:46:45;11.55;;;2.58;;
44694;SDS011;32845;59.422;17.930;2023-08-21T08:51:17;9.20;;;2.78;;
44694;SDS011;32845;59.422;17.930;2023-08-21T08:55:49;11.00;;;2.72;;
44694;SDS011;32845;59.422;17.930;2023-08-21T09:00:19;4.45;;;2.50;;
44694;SDS011;32845;59.422;17.930;2023-08-21T09:04:50;9.90;;;2.25;;
44694;SDS011;32845;59.422;17.930;2023-08-21T09:09:21;6.70;;;1.95;;
44694;SDS011;32845;59.422;17.930;2023-08-21T09:13:53;7.72;;;2.40;;
44694;SDS011;32845;59.422;17.930;2023-08-21T09:18:25;8.68;;;2.30;;
44694;SDS011;32845;59.422;17.930;2023-08-21T09:22:55;8.60;;;2.25;;
44694;SDS011;32845;59.422;17.930;2023-08-21T09:27:26;6.55;;;2.13;;
44694;SDS011;32845;59.422;17.930;2023-08-21T09:31:57;13.98;;;2.00;;
44694;SDS011;32845;59.422;17.930;2023-08-21T09:36:27;7.28;;;2.20;;
44694;SDS011;32845;59.422;17.930;2023-08-21T09:40:58;5.50;;;2.08;;
44694;SDS011;32845;59.422;17.930;2023-08-21T09:45:29;8.43;;;2.15;;
44694;SDS011;32845;59.422;17.930;2023-08-21T09:50:00;5.35;;;1.90;;
44694;SDS011;32845;59.422;17.930;2023-08-21T09:54:31;5.25;;;2.28;;
44694;SDS011;32845;59.422;17.930;2023-08-21T09:59:06;5.97;;;2.00;;
44694;SDS011;32845;59.422;17.930;2023-08-21T10:03:40;9.48;;;2.00;;
44694;SDS011;32845;59.422;17.930;2023-08-21T10:08:16;6.25;;;1.52;;
44694;SDS011;32845;59.422;17.930;2023-08-21T10:12:51;4.75;;;1.85;;
44694;SDS011;32845;59.422;17.930;2023-08-21T10:17:22;7.55;;;1.92;;
44694;SDS011;32845;59.422;17.930;2023-08-21T10:21:55;11.32;;;1.88;;
44694;SDS011;32845;59.422;17.930;2023-08-21T10:26:26;8.02;;;2.10;;
44694;SDS011;32845;59.422;17.930;2023-08-21T10:30:56;7.72;;;1.67;;
44694;SDS011;32845;59.422;17.930;2023-08-21T10:36:06;7.63;;;1.83;;
44694;SDS011;32845;59.422;17.930;2023-08-21T10:40:40;5.97;;;1.92;;
44694;SDS011;32845;59.422;17.930;2023-08-21T10:45:31;9.20;;;2.42;;
44694;SDS011;32845;59.422;17.930;2023-08-21T10:50:03;10.55;;;2.03;;
44694;SDS011;32845;59.422;17.930;2023-08-21T10:54:47;7.35;;;2.03;;
44694;SDS011;32845;59.422;17.930;2023-08-21T10:59:19;4.97;;;1.58;;
44694;SDS011;32845;59.422;17.930;2023-08-21T11:03:50;6.47;;;1.60;;
44694;SDS011;32845;59.422;17.930;2023-08-21T11:08:21;4.68;;;1.60;;
44694;SDS011;32845;59.422;17.930;2023-08-21T11:17:23;7.47;;;1.55;;
44694;SDS011;32845;59.422;17.930;2023-08-21T11:21:54;6.43;;;1.50;;
44694;SDS011;32845;59.422;17.930;2023-08-21T11:26:24;7.57;;;1.58;;
44694;SDS011;32845;59.422;17.930;2023-08-21T11:30:56;2.97;;;1.45;;
44694;SDS011;32845;59.422;17.930;2023-08-21T11:35:27;5.18;;;1.67;;
44694;SDS011;32845;59.422;17.930;2023-08-21T11:39:58;5.45;;;1.40;;
44694;SDS011;32845;59.422;17.930;2023-08-21T11:44:29;4.40;;;1.60;;
44694;SDS011;32845;59.422;17.930;2023-08-21T11:48:59;4.43;;;1.58;;
44694;SDS011;32845;59.422;17.930;2023-08-21T11:53:40;9.30;;;1.25;;
44694;SDS011;32845;59.422;17.930;2023-08-21T11:58:11;9.07;;;1.40;;
44694;SDS011;32845;59.422;17.930;2023-08-21T12:02:42;3.47;;;1.60;;
44694;SDS011;32845;59.422;17.930;2023-08-21T12:07:12;9.88;;;1.48;;
44694;SDS011;32845;59.422;17.930;2023-08-21T12:11:43;5.35;;;1.50;;
44694;SDS011;32845;59.422;17.930;2023-08-21T12:16:14;13.25;;;1.38;;
44694;SDS011;32845;59.422;17.930;2023-08-21T12:20:44;2.85;;;1.10;;
44694;SDS011;32845;59.422;17.930;2023-08-21T12:25:15;7.65;;;1.65;;
44694;SDS011;32845;59.422;17.930;2023-08-21T12:29:46;6.03;;;1.52;;
44694;SDS011;32845;59.422;17.930;2023-08-21T12:34:17;10.98;;;1.45;;
44694;SDS011;32845;59.422;17.930;2023-08-21T12:38:47;10.23;;;1.65;;
44694;SDS011;32845;59.422;17.930;2023-08-21T12:43:18;20.30;;;1.38;;
44694;SDS011;32845;59.422;17.930;2023-08-21T12:47:48;11.50;;;1.80;;
44694;SDS011;32845;59.422;17.930;2023-08-21T12:52:19;6.57;;;1.77;;
44694;SDS011;32845;59.422;17.930;2023-08-21T12:56:49;7.15;;;1.58;;
44694;SDS011;32845;59.422;17.930;2023-08-21T13:01:20;4.95;;;1.33;;
44694;SDS011;32845;59.422;17.930;2023-08-21T13:05:50;4.57;;;1.10;;
44694;SDS011;32845;59.422;17.930;2023-08-21T13:10:21;4.60;;;1.30;;
44694;SDS011;32845;59.422;17.930;2023-08-21T13:14:52;3.70;;;1.25;;
44694;SDS011;32845;59.422;17.930;2023-08-21T13:19:23;9.25;;;1.40;;
44694;SDS011;32845;59.422;17.930;2023-08-21T13:23:53;5.07;;;1.23;;
44694;SDS011;32845;59.422;17.930;2023-08-21T13:28:24;11.18;;;1.50;;
44694;SDS011;32845;59.422;17.930;2023-08-21T13:32:55;8.35;;;1.48;;
44694;SDS011;32845;59.422;17.930;2023-08-21T13:37:25;6.30;;;1.38;;
44694;SDS011;32845;59.422;17.930;2023-08-21T13:41:57;7.55;;;1.50;;
44694;SDS011;32845;59.422;17.930;2023-08-21T13:46:27;4.40;;;1.23;;
44694;SDS011;32845;59.422;17.930;2023-08-21T13:50:58;4.07;;;1.10;;
44694;SDS011;32845;59.422;17.930;2023-08-21T13:55:28;4.90;;;1.08;;
44694;SDS011;32845;59.422;17.930;2023-08-21T13:59:59;6.90;;;1.90;;
44694;SDS011;32845;59.422;17.930;2023-08-21T14:04:32;7.28;;;1.38;;
44694;SDS011;32845;59.422;17.930;2023-08-21T14:09:02;8.27;;;1.23;;
44694;SDS011;32845;59.422;17.930;2023-08-21T14:13:34;5.53;;;1.63;;
44694;SDS011;32845;59.422;17.930;2023-08-21T14:18:04;4.43;;;1.05;;
44694;SDS011;32845;59.422;17.930;2023-08-21T14:22:35;5.57;;;1.40;;
44694;SDS011;32845;59.422;17.930;2023-08-21T14:27:06;3.83;;;1.08;;
44694;SDS011;32845;59.422;17.930;2023-08-21T14:31:36;7.75;;;1.40;;
44694;SDS011;32845;59.422;17.930;2023-08-21T14:36:07;7.80;;;1.40;;
44694;SDS011;32845;59.422;17.930;2023-08-21T14:40:37;6.55;;;1.40;;
44694;SDS011;32845;59.422;17.930;2023-08-21T14:45:08;4.10;;;1.00;;
44694;SDS011;32845;59.422;17.930;2023-08-21T14:49:39;7.18;;;1.20;;
44694;SDS011;32845;59.422;17.930;2023-08-21T14:54:09;4.20;;;1.00;;
44694;SDS011;32845;59.422;17.930;2023-08-21T14:58:40;6.93;;;1.10;;
44694;SDS011;32845;59.422;17.930;2023-08-21T15:03:13;4.68;;;0.90;;
44694;SDS011;32845;59.422;17.930;2023-08-21T15:07:44;4.45;;;1.00;;
44694;SDS011;32845;59.422;17.930;2023-08-21T15:12:15;3.58;;;0.73;;
44694;SDS011;32845;59.422;17.930;2023-08-21T15:16:45;8.10;;;1.13;;
44694;SDS011;32845;59.422;17.930;2023-08-21T15:21:16;5.18;;;0.90;;
44694;SDS011;32845;59.422;17.930;2023-08-21T15:25:46;7.88;;;1.00;;
44694;SDS011;32845;59.422;17.930;2023-08-21T15:30:17;2.33;;;0.90;;
44694;SDS011;32845;59.422;17.930;2023-08-21T15:34:48;6.40;;;1.15;;
44694;SDS011;32845;59.422;17.930;2023-08-21T15:39:19;4.45;;;0.88;;
44694;SDS011;32845;59.422;17.930;2023-08-21T15:43:49;4.80;;;1.08;;
44694;SDS011;32845;59.422;17.930;2023-08-21T15:48:21;4.25;;;0.98;;
44694;SDS011;32845;59.422;17.930;2023-08-21T15:52:52;4.68;;;1.05;;
44694;SDS011;32845;59.422;17.930;2023-08-21T15:57:23;1.90;;;0.80;;
44694;SDS011;32845;59.422;17.930;2023-08-21T16:01:54;5.15;;;1.20;;
44694;SDS011;32845;59.422;17.930;2023-08-21T16:06:25;6.53;;;1.08;;
44694;SDS011;32845;59.422;17.930;2023-08-21T16:10:55;4.38;;;1.20;;
44694;SDS011;32845;59.422;17.930;2023-08-21T16:15:26;3.30;;;1.10;;
44694;SDS011;32845;59.422;17.930;2023-08-21T16:19:57;6.32;;;1.10;;
44694;SDS011;32845;59.422;17.930;2023-08-21T16:24:31;6.90;;;1.35;;
44694;SDS011;32845;59.422;17.930;2023-08-21T16:29:01;4.82;;;1.10;;
44694;SDS011;32845;59.422;17.930;2023-08-21T16:33:32;3.03;;;0.75;;
44694;SDS011;32845;59.422;17.930;2023-08-21T16:38:05;8.15;;;1.10;;
44694;SDS011;32845;59.422;17.930;2023-08-21T16:42:36;5.55;;;1.10;;
44694;SDS011;32845;59.422;17.930;2023-08-21T16:47:06;9.20;;;1.60;;
44694;SDS011;32845;59.422;17.930;2023-08-21T16:51:37;7.47;;;1.42;;
44694;SDS011;32845;59.422;17.930;2023-08-21T16:56:08;8.10;;;1.08;;
44694;SDS011;32845;59.422;17.930;2023-08-21T17:00:38;21.70;;;1.33;;
44694;SDS011;32845;59.422;17.930;2023-08-21T17:05:09;6.20;;;1.20;;
44694;SDS011;32845;59.422;17.930;2023-08-21T17:09:43;5.30;;;1.00;;
44694;SDS011;32845;59.422;17.930;2023-08-21T17:14:15;7.93;;;0.93;;
44694;SDS011;32845;59.422;17.930;2023-08-21T17:18:46;4.88;;;1.02;;
44694;SDS011;32845;59.422;17.930;2023-08-21T17:23:16;8.13;;;1.38;;
44694;SDS011;32845;59.422;17.930;2023-08-21T17:27:47;9.65;;;1.27;;
44694;SDS011;32845;59.422;17.930;2023-08-21T17:32:18;4.45;;;1.20;;
44694;SDS011;32845;59.422;17.930;2023-08-21T17:36:48;8.52;;;1.05;;
44694;SDS011;32845;59.422;17.930;2023-08-21T17:41:22;12.65;;;1.30;;
44694;SDS011;32845;59.422;17.930;2023-08-21T17:45:52;6.72;;;1.15;;
44694;SDS011;32845;59.422;17.930;2023-08-21T17:50:23;6.28;;;1.27;;
44694;SDS011;32845;59.422;17.930;2023-08-21T17:54:53;6.00;;;1.40;;
44694;SDS011;32845;59.422;17.930;2023-08-21T17:59:24;5.07;;;1.00;;
44694;SDS011;32845;59.422;17.930;2023-08-21T18:03:55;5.90;;;1.42;;
44694;SDS011;32845;59.422;17.930;2023-08-21T18:08:26;6.20;;;1.10;;
44694;SDS011;32845;59.422;17.930;2023-08-21T18:12:57;5.97;;;1.38;;
44694;SDS011;32845;59.422;17.930;2023-08-21T18:17:28;6.30;;;1.50;;
44694;SDS011;32845;59.422;17.930;2023-08-21T18:21:59;6.25;;;1.23;;
44694;SDS011;32845;59.422;17.930;2023-08-21T18:26:29;7.32;;;1.48;;
44694;SDS011;32845;59.422;17.930;2023-08-21T18:31:00;5.78;;;1.08;;
44694;SDS011;32845;59.422;17.930;2023-08-21T18:35:31;4.07;;;1.50;;
44694;SDS011;32845;59.422;17.930;2023-08-21T18:40:02;6.15;;;1.30;;
44694;SDS011;32845;59.422;17.930;2023-08-21T18:44:34;5.40;;;1.20;;
44694;SDS011;32845;59.422;17.930;2023-08-21T18:49:05;4.75;;;1.00;;
44694;SDS011;32845;59.422;17.930;2023-08-21T18:53:35;5.47;;;1.10;;
44694;SDS011;32845;59.422;17.930;2023-08-21T18:58:06;9.95;;;1.58;;
44694;SDS011;32845;59.422;17.930;2023-08-21T19:02:36;6.50;;;1.83;;
44694;SDS011;32845;59.422;17.930;2023-08-21T19:07:07;7.45;;;2.50;;
44694;SDS011;32845;59.422;17.930;2023-08-21T19:11:38;5.65;;;1.55;;
44694;SDS011;32845;59.422;17.930;2023-08-21T19:16:09;6.40;;;1.95;;
44694;SDS011;32845;59.422;17.930;2023-08-21T19:20:40;9.68;;;2.05;;
44694;SDS011;32845;59.422;17.930;2023-08-21T19:25:11;7.28;;;1.92;;
44694;SDS011;32845;59.422;17.930;2023-08-21T19:29:43;6.10;;;1.42;;
44694;SDS011;32845;59.422;17.930;2023-08-21T19:34:14;6.20;;;1.40;;
44694;SDS011;32845;59.422;17.930;2023-08-21T19:38:48;5.82;;;1.58;;
44694;SDS011;32845;59.422;17.930;2023-08-21T19:43:22;6.03;;;1.30;;
44694;SDS011;32845;59.422;17.930;2023-08-21T19:47:52;9.68;;;1.60;;
44694;SDS011;32845;59.422;17.930;2023-08-21T19:52:23;7.10;;;1.63;;
44694;SDS011;32845;59.422;17.930;2023-08-21T19:56:54;6.55;;;1.33;;
44694;SDS011;32845;59.422;17.930;2023-08-21T20:01:25;7.10;;;1.52;;
44694;SDS011;32845;59.422;17.930;2023-08-21T20:05:59;4.63;;;1.10;;
44694;SDS011;32845;59.422;17.930;2023-08-21T20:10:31;14.40;;;1.50;;
44694;SDS011;32845;59.422;17.930;2023-08-21T20:15:03;5.07;;;1.23;;
44694;SDS011;32845;59.422;17.930;2023-08-21T20:19:34;10.18;;;1.38;;
44694;SDS011;32845;59.422;17.930;2023-08-21T20:24:04;4.30;;;1.48;;
44694;SDS011;32845;59.422;17.930;2023-08-21T20:28:35;6.28;;;1.23;;
44694;SDS011;32845;59.422;17.930;2023-08-21T20:33:06;3.38;;;1.30;;
44694;SDS011;32845;59.422;17.930;2023-08-21T20:37:36;5.85;;;1.30;;
44694;SDS011;32845;59.422;17.930;2023-08-21T20:42:07;7.00;;;1.55;;
44694;SDS011;32845;59.422;17.930;2023-08-21T20:46:38;9.02;;;1.60;;
44694;SDS011;32845;59.422;17.930;2023-08-21T20:51:08;27.55;;;2.95;;
44694;SDS011;32845;59.422;17.930;2023-08-21T20:55:39;8.60;;;1.48;;
44694;SDS011;32845;59.422;17.930;2023-08-21T21:00:09;8.43;;;1.40;;
44694;SDS011;32845;59.422;17.930;2023-08-21T21:04:41;10.75;;;1.63;;
44694;SDS011;32845;59.422;17.930;2023-08-21T21:09:13;8.15;;;1.30;;
44694;SDS011;32845;59.422;17.930;2023-08-21T21:13:43;11.10;;;1.67;;
44694;SDS011;32845;59.422;17.930;2023-08-21T21:18:14;11.73;;;1.58;;
44694;SDS011;32845;59.422;17.930;2023-08-21T21:22:45;5.95;;;1.42;;
44694;SDS011;32845;59.422;17.930;2023-08-21T21:27:15;5.22;;;1.00;;
44694;SDS011;32845;59.422;17.930;2023-08-21T21:31:46;3.88;;;1.17;;
44694;SDS011;32845;59.422;17.930;2023-08-21T21:36:17;5.88;;;1.55;;
44694;SDS011;32845;59.422;17.930;2023-08-21T21:40:47;15.60;;;1.45;;
44694;SDS011;32845;59.422;17.930;2023-08-21T21:45:25;10.43;;;1.90;;
44694;SDS011;32845;59.422;17.930;2023-08-21T21:49:55;5.43;;;1.35;;
44694;SDS011;32845;59.422;17.930;2023-08-21T21:54:26;8.10;;;1.60;;
44694;SDS011;32845;59.422;17.930;2023-08-21T21:58:57;8.82;;;1.33;;
44694;SDS011;32845;59.422;17.930;2023-08-21T22:03:28;13.93;;;2.13;;
44694;SDS011;32845;59.422;17.930;2023-08-21T22:07:58;7.70;;;1.42;;
44694;SDS011;32845;59.422;17.930;2023-08-21T22:12:29;10.13;;;1.60;;
44694;SDS011;32845;59.422;17.930;2023-08-21T22:17:00;10.57;;;1.80;;
44694;SDS011;32845;59.422;17.930;2023-08-21T22:21:30;12.05;;;2.03;;
44694;SDS011;32845;59.422;17.930;2023-08-21T22:26:01;6.30;;;1.17;;
44694;SDS011;32845;59.422;17.930;2023-08-21T22:30:32;9.95;;;1.83;;
44694;SDS011;32845;59.422;17.930;2023-08-21T22:35:03;9.80;;;2.00;;
44694;SDS011;32845;59.422;17.930;2023-08-21T22:39:34;4.38;;;1.45;;
44694;SDS011;32845;59.422;17.930;2023-08-21T22:44:05;14.98;;;1.90;;
44694;SDS011;32845;59.422;17.930;2023-08-21T22:48:37;5.93;;;1.83;;
44694;SDS011;32845;59.422;17.930;2023-08-21T22:53:08;6.10;;;1.58;;
44694;SDS011;32845;59.422;17.930;2023-08-21T22:57:39;13.73;;;1.83;;
44694;SDS011;32845;59.422;17.930;2023-08-21T23:02:16;8.57;;;1.60;;
44694;SDS011;32845;59.422;17.930;2023-08-21T23:06:47;16.52;;;1.80;;
44694;SDS011;32845;59.422;17.930;2023-08-21T23:11:18;9.60;;;1.95;;
44694;SDS011;32845;59.422;17.930;2023-08-21T23:15:49;15.77;;;2.20;;
44694;SDS011;32845;59.422;17.930;2023-08-21T23:20:20;9.90;;;2.00;;
44694;SDS011;32845;59.422;17.930;2023-08-21T23:24:56;10.25;;;1.90;;
44694;SDS011;32845;59.422;17.930;2023-08-21T23:29:26;12.80;;;2.15;;
44694;SDS011;32845;59.422;17.930;2023-08-21T23:33:57;16.15;;;2.22;;
44694;SDS011;32845;59.422;17.930;2023-08-21T23:38:28;6.75;;;1.75;;
44694;SDS011;32845;59.422;17.930;2023-08-21T23:42:58;9.20;;;1.80;;
44694;SDS011;32845;59.422;17.930;2023-08-21T23:47:29;14.63;;;2.25;;
44694;SDS011;32845;59.422;17.930;2023-08-21T23:52:00;14.40;;;2.00;;
44694;SDS011;32845;59.422;17.930;2023-08-21T23:56:30;13.10;;;1.88;;
